Time;durP1;ratioP1;P1;durP2;ratioP2;P2;SDS_P1;SDS_P2;PMS_P1;PMS_P2;Temp;Humidity;BMP_temperature;BMP_pressure;BME280_temperature;BME280_humidity;BME280_pressure;Samples;Min_cycle;Max_cycle;Signal;HPM_P1;HPM_P2
2023/03/19 00:01:04;;;;;;;25.08;8.25;;;;;;;1.93;57.45;94436.38;5062079;28;20389;-71
2023/03/19 00:03:29;;;;;;;16.67;7.82;;;;;;;1.94;57.36;94440.63;5062721;28;20021;-71
2023/03/19 00:06:24;;;;;;;21.63;8.18;;;;;;;1.86;57.66;94433.94;5062724;28;20059;-71
2023/03/19 00:08:50;;;;;;;15.23;6.30;;;;;;;1.80;57.66;94435.72;5061959;28;20028;-71
2023/03/19 00:11:15;;;;;;;14.63;7.50;;;;;;;1.78;57.54;94424.66;5062283;28;20307;-71
2023/03/19 00:13:41;;;;;;;18.85;7.80;;;;;;;1.76;57.85;94429.34;5062042;28;20319;-72
2023/03/19 00:16:07;;;;;;;13.90;6.43;;;;;;;1.70;58.15;94427.69;5062740;28;20040;-69
2023/03/19 00:18:32;;;;;;;17.65;7.72;;;;;;;1.66;58.03;94423.19;5062754;28;20346;-69
2023/03/19 00:20:58;;;;;;;13.50;5.88;;;;;;;1.64;57.98;94423.41;5062977;28;20024;-69
2023/03/19 00:23:23;;;;;;;16.23;6.35;;;;;;;1.63;57.92;94424.47;5063002;28;20374;-69
2023/03/19 00:25:49;;;;;;;13.18;6.00;;;;;;;1.63;57.72;94419.22;5062662;28;20334;-69
2023/03/19 00:28:14;;;;;;;13.57;6.38;;;;;;;1.62;57.40;94414.19;5062924;28;20029;-69
2023/03/19 00:30:40;;;;;;;14.20;7.00;;;;;;;1.65;57.30;94416.31;5062608;28;20246;-70
2023/03/19 00:33:06;;;;;;;12.73;5.00;;;;;;;1.66;57.42;94418.72;5062991;28;20021;-70
2023/03/19 00:35:32;;;;;;;12.68;5.03;;;;;;;1.65;57.06;94406.63;5062946;28;20025;-70
2023/03/19 00:37:57;;;;;;;12.45;5.10;;;;;;;1.68;57.06;94415.84;5062861;28;20303;-70
2023/03/19 00:40:23;;;;;;;14.70;5.25;;;;;;;1.66;57.05;94410.84;5062809;28;20028;-71
2023/03/19 00:42:48;;;;;;;11.93;5.75;;;;;;;1.66;56.96;94408.19;5062701;28;20104;-71
2023/03/19 00:45:14;;;;;;;12.20;4.82;;;;;;;1.67;56.96;94404.56;5062555;28;20017;-71
2023/03/19 00:47:39;;;;;;;13.40;4.97;;;;;;;1.69;55.86;94407.72;5062483;28;20319;-71
2023/03/19 00:50:05;;;;;;;11.52;4.78;;;;;;;1.68;56.22;94400.88;5062655;28;20017;-71
2023/03/19 00:52:31;;;;;;;8.23;3.95;;;;;;;1.69;56.03;94405.09;5062757;28;20092;-71
2023/03/19 00:54:56;;;;;;;14.48;5.25;;;;;;;1.69;56.17;94391.97;5062865;28;20027;-71
2023/03/19 00:57:22;;;;;;;13.13;5.28;;;;;;;1.67;56.23;94399.28;5062715;28;20219;-71
2023/03/19 00:59:48;;;;;;;18.40;6.22;;;;;;;1.67;56.84;94393.22;5062323;28;20024;-71
2023/03/19 01:02:13;;;;;;;15.95;6.55;;;;;;;1.66;57.07;94389.03;5062401;28;20319;-71
2023/03/19 01:04:48;;;;;;;13.82;6.35;;;;;;;1.68;57.17;94382.47;5062522;28;20083;-71
2023/03/19 01:07:14;;;;;;;16.20;6.82;;;;;;;1.70;57.06;94387.50;5062458;28;20021;-71
2023/03/19 01:09:40;;;;;;;14.07;6.03;;;;;;;1.65;57.51;94380.34;5062601;28;20035;-71
2023/03/19 01:12:06;;;;;;;20.50;6.57;;;;;;;1.63;57.89;94385.06;5062391;28;20283;-71
2023/03/19 01:14:32;;;;;;;12.57;6.28;;;;;;;1.60;57.99;94382.91;5062338;28;20016;-71
2023/03/19 01:16:58;;;;;;;14.18;6.50;;;;;;;1.60;58.19;94382.91;5062679;28;20044;-70
2023/03/19 01:19:24;;;;;;;15.30;6.57;;;;;;;1.61;58.32;94374.00;5062117;28;20025;-70
2023/03/19 01:21:49;;;;;;;15.20;6.55;;;;;;;1.58;58.33;94374.47;5062282;28;20215;-70
2023/03/19 01:24:16;;;;;;;12.65;6.25;;;;;;;1.52;58.71;94372.81;5062270;28;20086;-70
2023/03/19 01:26:42;;;;;;;13.73;6.93;;;;;;;1.52;58.90;94375.44;5062415;28;20016;-70
2023/03/19 01:29:08;;;;;;;14.48;7.10;;;;;;;1.51;58.85;94379.13;5062192;28;20023;-70
2023/03/19 01:31:34;;;;;;;14.98;6.45;;;;;;;1.50;58.94;94369.63;5062183;28;20063;-70
2023/03/19 01:34:00;;;;;;;15.30;7.18;;;;;;;1.48;59.02;94372.50;5062411;28;20048;-70
2023/03/19 01:36:26;;;;;;;14.48;6.95;;;;;;;1.46;59.32;94371.16;5064166;28;20103;-70
2023/03/19 01:38:51;;;;;;;15.13;6.15;;;;;;;1.44;59.25;94368.78;5065918;28;20037;-70
2023/03/19 01:41:17;;;;;;;20.30;7.43;;;;;;;1.39;59.11;94376.59;5065812;28;20204;-70
2023/03/19 01:43:42;;;;;;;22.35;7.75;;;;;;;1.37;59.13;94376.03;5065710;28;20071;-70
2023/03/19 01:46:33;;;;;;;17.48;7.85;;;;;;;1.32;59.30;94386.47;5065770;28;20223;-70
2023/03/19 01:49:02;;;;;;;18.90;7.45;;;;;;;1.31;59.57;94380.44;5065783;28;20037;-70
2023/03/19 01:51:31;;;;;;;19.15;8.32;;;;;;;1.24;59.83;94379.78;5065925;28;20048;-70
2023/03/19 01:54:01;;;;;;;16.92;7.97;;;;;;;1.20;59.86;94374.25;5065532;28;20025;-70
2023/03/19 01:56:38;;;;;;;16.80;8.10;;;;;;;1.26;59.70;94379.56;5065591;28;20354;-70
2023/03/19 01:59:13;;;;;;;15.57;6.63;;;;;;;1.23;59.85;94378.22;5065445;28;20079;-70
2023/03/19 02:01:46;;;;;;;16.02;6.32;;;;;;;1.16;59.93;94382.81;5065334;28;20025;-70
2023/03/19 02:04:12;;;;;;;15.13;6.45;;;;;;;1.15;59.05;94376.00;5065408;28;20024;-70
2023/03/19 02:06:40;;;;;;;15.75;6.25;;;;;;;1.16;59.11;94377.56;5065347;28;20028;-70
2023/03/19 02:09:06;;;;;;;18.50;6.55;;;;;;;1.17;59.19;94384.44;5065397;28;20028;-70
2023/03/19 02:11:32;;;;;;;18.83;7.50;;;;;;;1.16;59.02;94382.81;5064994;28;20021;-70
2023/03/19 02:13:57;;;;;;;16.17;6.72;;;;;;;1.15;59.20;94389.91;5065339;28;20025;-70
2023/03/19 02:16:22;;;;;;;16.60;7.18;;;;;;;1.16;59.35;94377.56;5065307;28;20028;-70
2023/03/19 02:18:48;;;;;;;19.15;6.80;;;;;;;1.17;59.08;94379.97;5065001;28;20052;-70
2023/03/19 02:21:16;;;;;;;15.68;6.65;;;;;;;1.15;59.36;94368.91;5065125;28;20024;-70
2023/03/19 02:23:59;;;;;;;16.58;6.45;;;;;;;1.18;59.67;94376.31;5065089;28;20033;-70
2023/03/19 02:26:28;;;;;;;15.50;7.03;;;;;;;1.13;59.91;94367.56;5065002;28;20028;-70
2023/03/19 02:28:53;;;;;;;18.95;7.93;;;;;;;1.11;60.11;94374.91;5064881;28;20025;-70
2023/03/19 02:31:20;;;;;;;17.38;8.25;;;;;;;1.07;60.27;94371.94;5064881;28;20071;-70
2023/03/19 02:34:05;;;;;;;19.75;9.20;;;;;;;1.09;60.57;94374.34;5064746;28;20091;-70
2023/03/19 02:36:37;;;;;;;17.75;8.93;;;;;;;1.07;60.62;94377.19;5065163;28;20227;-71
2023/03/19 02:39:06;;;;;;;16.60;7.35;;;;;;;1.03;60.84;94380.56;5064694;28;20052;-71
2023/03/19 02:41:33;;;;;;;16.88;8.18;;;;;;;0.98;61.06;94384.69;5064794;28;20227;-70
2023/03/19 02:44:02;;;;;;;21.08;10.55;;;;;;;0.99;60.69;94382.84;5064898;28;20090;-71
2023/03/19 02:46:27;;;;;;;33.80;11.95;;;;;;;0.97;61.12;94393.59;5064768;28;20306;-71
2023/03/19 02:48:53;;;;;;;25.58;11.70;;;;;;;0.91;61.39;94396.38;5062193;28;20037;-71
2023/03/19 02:51:18;;;;;;;24.40;9.57;;;;;;;0.85;61.27;94392.88;5064514;28;20065;-71
2023/03/19 02:53:44;;;;;;;24.40;8.88;;;;;;;0.84;61.39;94391.31;5063539;28;20013;-71
2023/03/19 02:56:10;;;;;;;24.45;11.10;;;;;;;0.84;61.53;94396.56;5063534;28;20272;-70
2023/03/19 02:58:36;;;;;;;24.98;10.80;;;;;;;0.84;61.59;94391.31;5063431;28;20021;-70
2023/03/19 03:01:01;;;;;;;28.30;11.88;;;;;;;0.84;61.88;94388.69;5063708;28;20032;-69
2023/03/19 03:03:27;;;;;;;52.53;17.95;;;;;;;0.88;61.72;94402.13;5064254;28;20062;-70
2023/03/19 03:05:52;;;;;;;44.63;14.98;;;;;;;0.83;61.92;94394.94;5064158;28;20032;-70
2023/03/19 03:08:18;;;;;;;17.23;5.68;;;;;;;0.83;61.28;94392.31;5063944;28;20315;-71
2023/03/19 03:10:43;;;;;;;8.52;4.00;;;;;;;0.84;60.21;94396.56;5064210;28;20090;-70
2023/03/19 03:13:08;;;;;;;8.02;4.38;;;;;;;0.79;59.98;94404.31;5064213;28;20255;-70
2023/03/19 03:15:34;;;;;;;9.23;3.72;;;;;;;0.82;60.05;94410.94;5064254;28;20031;-70
2023/03/19 03:17:59;;;;;;;14.52;3.92;;;;;;;0.81;59.75;94402.25;5063886;28;20055;-70
2023/03/19 03:20:25;;;;;;;11.40;4.00;;;;;;;0.81;60.05;94397.00;5064012;28;20025;-70
2023/03/19 03:22:50;;;;;;;10.05;4.55;;;;;;;0.76;60.19;94399.56;5063990;28;20028;-70
2023/03/19 03:25:16;;;;;;;10.45;5.78;;;;;;;0.75;60.48;94401.41;5064041;28;20223;-70
2023/03/19 03:27:42;;;;;;;9.20;4.93;;;;;;;0.73;60.42;94400.84;5064036;28;20025;-70
2023/03/19 03:30:09;;;;;;;10.80;4.75;;;;;;;0.72;60.80;94408.94;5063865;28;20044;-70
2023/03/19 03:32:35;;;;;;;10.80;4.18;;;;;;;0.72;60.89;94403.72;5063681;28;20024;-70
2023/03/19 03:35:03;;;;;;;15.93;5.80;;;;;;;0.71;60.85;94413.41;5063976;28;20029;-70
2023/03/19 03:37:28;;;;;;;21.48;7.68;;;;;;;0.68;61.34;94410.47;5064059;28;20029;-70
2023/03/19 03:39:54;;;;;;;23.08;8.00;;;;;;;0.70;61.64;94408.41;5063700;28;20035;-70
2023/03/19 03:42:19;;;;;;;27.38;9.80;;;;;;;0.71;61.95;94408.16;5063613;28;20331;-70
2023/03/19 03:44:45;;;;;;;26.33;9.52;;;;;;;0.68;62.12;94418.34;5063424;28;20078;-70
2023/03/19 03:47:11;;;;;;;28.33;7.38;;;;;;;0.59;62.22;94410.84;5063711;28;20024;-68
2023/03/19 03:49:37;;;;;;;20.65;7.93;;;;;;;0.58;62.19;94414.50;5063417;28;20326;-71
2023/03/19 03:52:02;;;;;;;20.17;7.57;;;;;;;0.55;62.44;94414.16;5063568;28;20099;-71
2023/03/19 03:54:28;;;;;;;16.05;7.72;;;;;;;0.54;62.59;94421.25;5063622;28;20029;-71
2023/03/19 03:56:53;;;;;;;24.63;8.13;;;;;;;0.53;62.73;94421.47;5063168;28;20092;-71
2023/03/19 03:59:19;;;;;;;19.73;7.85;;;;;;;0.54;63.23;94418.63;5062997;28;20036;-71
2023/03/19 04:01:44;;;;;;;22.35;7.70;;;;;;;0.56;63.16;94424.44;5063459;28;20025;-69
2023/03/19 04:04:10;;;;;;;17.63;8.90;;;;;;;0.54;63.29;94417.84;5063376;28;20369;-69
2023/03/19 04:06:35;;;;;;;19.85;8.18;;;;;;;0.56;63.44;94418.38;5063185;28;20092;-69
2023/03/19 04:09:01;;;;;;;22.80;8.10;;;;;;;0.56;63.79;94415.78;5063277;28;20024;-69
2023/03/19 04:11:27;;;;;;;19.65;7.90;;;;;;;0.56;63.74;94413.94;5063327;28;20028;-69
2023/03/19 04:13:56;;;;;;;22.27;7.65;;;;;;;0.48;64.12;94416.16;5063322;28;20029;-71
2023/03/19 04:16:22;;;;;;;20.33;7.38;;;;;;;0.46;64.24;94413.75;5063139;28;20105;-71
2023/03/19 04:18:48;;;;;;;14.98;7.43;;;;;;;0.44;64.44;94407.97;5063032;28;20029;-72
2023/03/19 04:21:13;;;;;;;22.00;8.60;;;;;;;0.45;64.66;94403.50;5062925;28;20035;-70
2023/03/19 04:23:39;;;;;;;22.40;8.60;;;;;;;0.39;64.82;94413.13;5063127;28;20055;-70
2023/03/19 04:26:06;;;;;;;17.70;8.68;;;;;;;0.39;64.85;94405.25;5062914;28;20029;-70
2023/03/19 04:28:32;;;;;;;18.42;9.07;;;;;;;0.39;64.85;94415.75;5063045;28;20060;-70
2023/03/19 04:31:03;;;;;;;23.27;10.15;;;;;;;0.40;64.93;94409.47;5062936;28;20028;-71
2023/03/19 04:33:29;;;;;;;29.13;9.93;;;;;;;0.36;65.18;94411.75;5062929;28;20027;-70
2023/03/19 04:35:55;;;;;;;23.52;9.40;;;;;;;0.31;65.29;94419.53;5062800;28;20021;-70
2023/03/19 04:38:21;;;;;;;21.83;8.93;;;;;;;0.35;65.33;94425.13;5062808;28;20025;-70
2023/03/19 04:40:47;;;;;;;20.88;8.23;;;;;;;0.37;65.00;94428.31;5062894;28;20071;-70
2023/03/19 04:43:13;;;;;;;17.10;8.52;;;;;;;0.32;64.88;94420.34;5062646;28;20025;-70
2023/03/19 04:45:38;;;;;;;23.02;8.98;;;;;;;0.32;65.06;94420.34;5062746;28;20047;-70
2023/03/19 04:48:04;;;;;;;21.80;8.75;;;;;;;0.35;64.74;94425.13;5062727;28;20252;-70
2023/03/19 04:50:30;;;;;;;26.20;10.32;;;;;;;0.37;64.94;94423.84;5062858;28;20025;-70
2023/03/19 04:52:55;;;;;;;24.15;9.50;;;;;;;0.44;64.93;94428.94;5062770;28;20021;-70
2023/03/19 04:55:20;;;;;;;19.15;8.20;;;;;;;0.48;64.90;94424.81;5062504;28;20087;-70
2023/03/19 04:57:46;;;;;;;17.83;7.97;;;;;;;0.50;65.06;94412.25;5062898;28;20326;-70
2023/03/19 05:00:13;;;;;;;29.38;9.48;;;;;;;0.52;65.22;94419.91;5062553;28;20017;-71
2023/03/19 05:02:40;;;;;;;21.65;10.15;;;;;;;0.57;64.88;94412.91;5062558;28;20039;-71
2023/03/19 05:05:06;;;;;;;22.80;10.10;;;;;;;0.54;65.20;94423.88;5062543;28;20021;-70
2023/03/19 05:07:32;;;;;;;21.27;9.18;;;;;;;0.56;64.75;94416.56;5062672;28;20021;-70
2023/03/19 05:09:57;;;;;;;19.05;9.45;;;;;;;0.63;64.93;94426.09;5062645;28;20059;-71
2023/03/19 05:12:23;;;;;;;23.10;9.32;;;;;;;0.65;64.83;94421.41;5065936;28;20084;-71
2023/03/19 05:14:48;;;;;;;23.92;10.20;;;;;;;0.68;64.71;94429.63;5066297;28;20025;-72
2023/03/19 05:17:14;;;;;;;22.88;11.43;;;;;;;0.76;64.55;94421.34;5066473;28;20028;-71
2023/03/19 05:19:39;;;;;;;20.20;9.38;;;;;;;0.82;64.56;94426.69;5066019;28;20024;-71
2023/03/19 05:22:05;;;;;;;19.63;9.38;;;;;;;0.86;64.55;94419.94;5066360;28;20092;-71
2023/03/19 05:24:30;;;;;;;20.98;9.65;;;;;;;0.93;64.37;94431.84;5066422;28;20040;-71
2023/03/19 05:26:56;;;;;;;30.30;10.40;;;;;;;1.02;64.22;94424.41;5066334;28;20231;-71
2023/03/19 05:29:22;;;;;;;33.15;15.05;;;;;;;1.11;63.91;94427.41;5066206;28;20130;-71
2023/03/19 05:31:47;;;;;;;27.45;13.15;;;;;;;1.18;63.59;94422.78;5066010;28;20017;-71
2023/03/19 05:34:13;;;;;;;27.65;10.75;;;;;;;1.25;62.69;94412.91;5066158;28;20315;-71
2023/03/19 05:36:38;;;;;;;36.22;13.95;;;;;;;1.32;62.63;94423.25;5066100;28;20375;-71
2023/03/19 05:39:04;;;;;;;28.35;12.32;;;;;;;1.27;63.14;94417.94;5065860;28;20323;-71
2023/03/19 05:41:31;;;;;;;27.33;12.57;;;;;;;1.38;63.23;94428.34;5066159;28;20040;-71
2023/03/19 05:43:56;;;;;;;25.67;9.38;;;;;;;1.36;63.25;94425.16;5066017;28;20040;-71
2023/03/19 05:46:22;;;;;;;30.15;11.48;;;;;;;1.40;63.39;94426.28;5065977;28;20029;-70
2023/03/19 05:48:47;;;;;;;33.67;11.27;;;;;;;1.44;63.40;94433.66;5065772;28;20044;-71
2023/03/19 05:51:13;;;;;;;27.70;9.88;;;;;;;1.45;63.27;94432.63;5065789;28;20051;-70
2023/03/19 05:53:38;;;;;;;37.10;10.50;;;;;;;1.49;63.36;94444.25;5065489;28;20028;-70
2023/03/19 05:56:04;;;;;;;31.55;13.45;;;;;;;1.49;62.92;94434.53;5065796;28;20049;-70
2023/03/19 05:58:29;;;;;;;24.85;12.20;;;;;;;1.54;63.17;94447.72;5065783;28;20322;-70
2023/03/19 06:00:55;;;;;;;38.53;12.30;;;;;;;1.50;62.84;94441.34;5065776;28;20021;-70
2023/03/19 06:03:21;;;;;;;23.38;11.07;;;;;;;1.60;62.86;94435.44;5065630;28;20029;-70
2023/03/19 06:05:50;;;;;;;28.67;12.27;;;;;;;1.69;62.85;94433.19;5065376;28;20092;-70
2023/03/19 06:08:17;;;;;;;25.17;10.88;;;;;;;1.78;62.53;94423.88;5065435;28;20044;-70
2023/03/19 06:10:42;;;;;;;24.02;10.75;;;;;;;1.85;62.30;94434.19;5065504;28;20196;-71
2023/03/19 06:13:08;;;;;;;21.48;10.77;;;;;;;1.92;61.85;94432.19;5065410;28;20066;-70
2023/03/19 06:15:33;;;;;;;17.48;7.55;;;;;;;2.02;61.08;94429.69;5065314;28;20028;-70
2023/03/19 06:17:58;;;;;;;13.38;6.55;;;;;;;2.12;60.53;94427.16;5065316;28;20323;-70
2023/03/19 06:20:24;;;;;;;22.48;6.50;;;;;;;2.20;59.78;94424.09;5065510;28;20078;-70
2023/03/19 06:22:50;;;;;;;19.50;6.28;;;;;;;2.30;59.45;94427.88;5065161;28;20041;-70
2023/03/19 06:25:16;;;;;;;13.15;5.72;;;;;;;2.39;58.66;94427.19;5064955;28;20096;-70
2023/03/19 06:27:42;;;;;;;11.82;5.70;;;;;;;2.45;58.58;94425.41;5065106;28;20032;-69
2023/03/19 06:30:08;;;;;;;15.52;5.22;;;;;;;2.54;58.38;94434.44;5064829;28;20048;-70
2023/03/19 06:32:34;;;;;;;14.93;6.03;;;;;;;2.61;58.57;94442.16;5065137;28;20036;-71
2023/03/19 06:35:00;;;;;;;14.50;6.03;;;;;;;2.69;58.21;94440.91;5065232;28;20266;-71
2023/03/19 06:37:26;;;;;;;10.18;5.03;;;;;;;2.78;57.85;94439.41;5065035;28;20021;-71
2023/03/19 06:39:53;;;;;;;11.15;5.15;;;;;;;2.90;57.17;94447.16;5064694;28;20059;-70
2023/03/19 06:42:20;;;;;;;11.18;5.10;;;;;;;2.98;56.99;94447.47;5064823;28;20248;-70
2023/03/19 06:44:46;;;;;;;9.95;5.15;;;;;;;3.09;56.76;94442.28;5064742;28;20063;-69
2023/03/19 06:47:11;;;;;;;10.23;5.05;;;;;;;3.17;56.44;94452.34;5063061;28;20029;-70
2023/03/19 06:49:36;;;;;;;10.88;4.72;;;;;;;3.30;55.80;94454.59;5062890;28;20166;-70
2023/03/19 06:52:02;;;;;;;11.90;5.40;;;;;;;3.37;55.36;94457.00;5062761;28;20091;-70
2023/03/19 06:54:27;;;;;;;12.07;5.32;;;;;;;3.42;55.18;94468.38;5063967;28;20041;-70
2023/03/19 06:56:53;;;;;;;12.70;4.90;;;;;;;3.50;54.88;94471.56;5064748;28;20349;-70
2023/03/19 06:59:18;;;;;;;10.77;5.03;;;;;;;3.52;54.55;94470.28;5064243;28;20070;-70
2023/03/19 07:01:45;;;;;;;10.63;5.07;;;;;;;3.65;54.64;94461.13;5064208;28;20088;-70
2023/03/19 07:04:11;;;;;;;11.48;5.68;;;;;;;3.71;54.61;94462.75;5063984;28;20027;-71
2023/03/19 07:06:36;;;;;;;13.93;5.95;;;;;;;3.74;54.58;94456.16;5063814;28;20021;-71
2023/03/19 07:09:03;;;;;;;11.38;5.72;;;;;;;3.80;54.45;94455.16;5064303;28;20123;-71
2023/03/19 07:11:28;;;;;;;14.88;6.53;;;;;;;3.88;54.44;94461.78;5064531;28;20052;-71
2023/03/19 07:13:54;;;;;;;11.93;6.05;;;;;;;3.94;54.28;94460.75;5064191;28;20220;-71
2023/03/19 07:16:19;;;;;;;21.40;5.68;;;;;;;4.02;54.01;94458.41;5064174;28;20025;-71
2023/03/19 07:18:44;;;;;;;12.88;5.53;;;;;;;4.13;53.45;94461.91;5063960;28;20319;-71
2023/03/19 07:21:10;;;;;;;10.63;5.55;;;;;;;4.24;52.90;94457.47;5063820;28;20049;-71
2023/03/19 07:23:35;;;;;;;11.55;5.43;;;;;;;4.37;51.76;94466.75;5064058;28;20020;-71
2023/03/19 07:26:01;;;;;;;11.60;6.55;;;;;;;4.42;52.03;94461.50;5064173;28;20036;-70
2023/03/19 07:28:27;;;;;;;28.95;6.15;;;;;;;4.45;52.28;94460.97;5063934;28;20095;-71
2023/03/19 07:30:52;;;;;;;12.23;4.82;;;;;;;4.32;52.65;94451.69;5063537;28;20091;-71
2023/03/19 07:33:19;;;;;;;17.13;5.05;;;;;;;4.35;52.05;94453.00;5063359;28;20032;-71
2023/03/19 07:35:45;;;;;;;14.73;6.15;;;;;;;4.44;51.94;94459.41;5063723;28;20025;-70
2023/03/19 07:38:11;;;;;;;15.27;6.68;;;;;;;4.54;51.89;94448.88;5063643;28;20071;-70
2023/03/19 07:40:36;;;;;;;10.00;5.85;;;;;;;4.59;50.91;94454.13;5063491;28;20028;-70
2023/03/19 07:43:02;;;;;;;10.30;5.32;;;;;;;4.65;50.70;94452.31;5063372;28;20021;-71
2023/03/19 07:45:28;;;;;;;24.17;6.93;;;;;;;4.71;50.58;94453.13;5063833;28;20036;-70
2023/03/19 07:47:54;;;;;;;11.75;5.55;;;;;;;4.76;50.86;94458.41;5063515;28;20045;-70
2023/03/19 07:50:20;;;;;;;14.32;6.28;;;;;;;4.85;50.76;94459.47;5063488;28;20085;-69
2023/03/19 07:52:47;;;;;;;16.40;7.57;;;;;;;4.94;50.69;94457.09;5063510;28;20021;-70
2023/03/19 07:55:13;;;;;;;16.23;6.95;;;;;;;5.12;51.02;94469.03;5063224;28;20048;-68
2023/03/19 07:57:39;;;;;;;14.73;8.10;;;;;;;5.16;50.52;94467.44;5063311;28;20025;-66
2023/03/19 08:00:05;;;;;;;18.60;6.70;;;;;;;5.17;50.79;94458.44;5063222;28;20075;-66
2023/03/19 08:02:30;;;;;;;17.27;7.07;;;;;;;5.20;49.54;94461.34;5063144;28;20315;-66
2023/03/19 08:04:57;;;;;;;17.00;7.68;;;;;;;5.26;48.72;94456.09;5062769;28;20032;-67
2023/03/19 08:07:23;;;;;;;13.98;7.25;;;;;;;5.23;49.02;94460.84;5062599;28;20027;-67
2023/03/19 08:09:48;;;;;;;17.77;6.97;;;;;;;5.33;48.95;94467.16;5062855;28;20025;-67
2023/03/19 08:12:14;;;;;;;23.80;7.65;;;;;;;5.41;47.97;94456.88;5062850;28;20319;-67
2023/03/19 08:14:39;;;;;;;17.20;7.82;;;;;;;5.44;48.11;94460.84;5062773;28;20058;-67
2023/03/19 08:17:05;;;;;;;19.67;7.40;;;;;;;5.53;48.34;94466.38;5062847;28;20345;-66
2023/03/19 08:19:30;;;;;;;11.23;6.03;;;;;;;5.62;47.77;94467.44;5062603;28;20024;-67
2023/03/19 08:21:56;;;;;;;17.90;7.38;;;;;;;5.68;47.25;94460.25;5062713;28;20196;-66
2023/03/19 08:24:21;;;;;;;13.25;6.90;;;;;;;5.72;46.74;94466.59;5063026;28;20104;-66
2023/03/19 08:26:47;;;;;;;16.80;6.55;;;;;;;5.74;47.10;94464.47;5062837;28;20021;-66
2023/03/19 08:29:12;;;;;;;14.18;6.55;;;;;;;5.77;46.83;94463.97;5062765;28;20066;-66
2023/03/19 08:31:38;;;;;;;16.67;6.75;;;;;;;5.80;46.86;94466.88;5062621;28;20029;-67
2023/03/19 08:34:04;;;;;;;20.05;6.78;;;;;;;5.87;47.29;94461.28;5062746;28;20056;-66
2023/03/19 08:36:30;;;;;;;16.30;6.85;;;;;;;5.97;47.33;94460.50;5062906;28;20017;-66
2023/03/19 08:38:57;;;;;;;16.08;7.00;;;;;;;6.06;46.32;94461.53;5062679;28;20092;-66
2023/03/19 08:41:23;;;;;;;11.80;6.57;;;;;;;6.08;46.90;94461.25;5062558;28;20338;-66
2023/03/19 08:43:49;;;;;;;12.50;7.50;;;;;;;6.25;46.89;94448.50;5062660;28;20028;-66
2023/03/19 08:46:15;;;;;;;17.35;7.25;;;;;;;6.42;46.43;94454.25;5064314;28;20021;-66
2023/03/19 08:48:40;;;;;;;18.58;7.30;;;;;;;6.51;45.91;94451.03;5066638;28;20045;-66
2023/03/19 08:51:06;;;;;;;16.50;6.43;;;;;;;6.53;45.86;94440.97;5066672;28;20021;-66
2023/03/19 08:53:32;;;;;;;14.90;7.07;;;;;;;6.54;45.78;94438.03;5066669;28;20095;-66
2023/03/19 08:56:03;;;;;;;15.07;7.82;;;;;;;6.67;45.97;94435.84;5066688;28;20024;-67
2023/03/19 08:58:29;;;;;;;17.02;7.72;;;;;;;6.70;45.72;94440.63;5066604;28;20091;-66
2023/03/19 09:01:07;;;;;;;14.48;6.88;;;;;;;6.67;45.95;94430.56;5066722;28;20021;-67
2023/03/19 09:03:33;;;;;;;22.25;7.47;;;;;;;6.83;45.82;94429.41;5066489;28;20025;-67
2023/03/19 09:06:00;;;;;;;13.65;7.32;;;;;;;6.87;45.15;94433.06;5066619;28;20170;-68
2023/03/19 09:08:27;;;;;;;15.55;8.00;;;;;;;6.93;45.41;94429.31;5066651;28;20021;-68
2023/03/19 09:10:52;;;;;;;15.30;7.72;;;;;;;6.94;45.46;94416.84;5066319;28;20029;-67
2023/03/19 09:13:18;;;;;;;12.73;7.68;;;;;;;7.01;45.56;94428.75;5066319;28;20058;-67
2023/03/19 09:15:43;;;;;;;13.82;7.60;;;;;;;7.05;45.72;94413.09;5066283;28;20024;-67
2023/03/19 09:18:09;;;;;;;19.10;8.43;;;;;;;7.17;44.85;94415.38;5066076;28;20052;-66
2023/03/19 09:20:34;;;;;;;19.00;8.45;;;;;;;7.22;45.82;94410.03;5066188;28;20092;-67
2023/03/19 09:23:00;;;;;;;16.98;8.30;;;;;;;7.29;44.39;94420.34;5066435;28;20215;-66
2023/03/19 09:25:25;;;;;;;17.27;7.68;;;;;;;7.33;44.31;94408.88;5066186;28;20028;-66
2023/03/19 09:27:50;;;;;;;15.80;7.70;;;;;;;7.39;44.10;94413.06;5066226;28;20032;-67
2023/03/19 09:30:16;;;;;;;17.00;8.55;;;;;;;7.52;43.39;94421.44;5065800;28;20013;-66
2023/03/19 09:32:41;;;;;;;12.88;7.80;;;;;;;7.59;43.83;94409.44;5066106;28;20027;-67
2023/03/19 09:35:07;;;;;;;21.33;8.35;;;;;;;7.68;43.23;94414.91;5065937;28;20028;-67
2023/03/19 09:37:33;;;;;;;18.67;9.23;;;;;;;7.72;42.87;94407.19;5066087;28;20024;-67
2023/03/19 09:39:58;;;;;;;27.60;9.63;;;;;;;7.81;42.77;94403.63;5066084;28;20075;-83
2023/03/19 09:43:01;;;;;;;23.67;10.23;;;;;;;7.92;42.51;94400.88;5065961;28;20024;-89
2023/03/19 09:45:28;;;;;;;24.05;9.65;;;;;;;8.03;42.41;94416.41;5065989;28;20025;-85
2023/03/19 09:47:59;;;;;;;27.63;10.60;;;;;;;8.11;42.57;94409.69;5065613;28;20045;-86
2023/03/19 09:50:31;;;;;;;15.60;8.57;;;;;;;8.23;42.81;94407.41;5065692;28;20021;-87
2023/03/19 09:53:12;;;;;;;19.95;10.52;;;;;;;8.28;42.55;94406.53;5065947;28;20107;-84
2023/03/19 09:55:47;;;;;;;20.13;9.73;;;;;;;8.33;42.49;94393.22;5064509;28;20025;-85
2023/03/19 09:58:19;;;;;;;21.23;10.32;;;;;;;8.44;41.92;94402.66;5064970;28;20139;-84
2023/03/19 10:00:52;;;;;;;23.25;10.65;;;;;;;8.48;42.44;94392.25;5064278;28;20208;-84
2023/03/19 10:03:30;;;;;;;25.48;10.07;;;;;;;8.66;41.79;94403.19;5065628;28;20045;-88
2023/03/19 10:06:24;;;;;;;19.75;9.95;;;;;;;8.80;41.26;94386.22;5064288;28;20104;-88
2023/03/19 10:08:59;;;;;;;26.02;9.50;;;;;;;8.91;40.83;94389.50;5065861;28;20051;-88
2023/03/19 10:11:37;;;;;;;21.80;10.40;;;;;;;9.08;40.71;94386.34;5064454;28;20060;-88
2023/03/19 10:14:32;;;;;;;19.25;9.63;;;;;;;9.28;41.30;94389.75;5063858;28;20035;-85
2023/03/19 10:17:00;;;;;;;16.05;10.32;;;;;;;9.42;39.52;94383.41;5065194;28;20017;-87
2023/03/19 10:20:08;;;;;;;18.23;9.55;;;;;;;9.56;38.63;94393.25;5065236;28;20100;-75
2023/03/19 10:22:43;;;;;;;22.45;10.90;;;;;;;9.61;38.74;94380.66;5059238;28;20044;-75
2023/03/19 10:25:19;;;;;;;24.95;11.57;;;;;;;9.69;38.83;94362.41;5065139;28;20138;-75
2023/03/19 10:27:49;;;;;;;23.10;11.25;;;;;;;9.72;38.61;94362.63;5064875;28;20163;-75
2023/03/19 10:30:16;;;;;;;24.77;10.68;;;;;;;9.88;39.13;94365.00;5064889;28;20028;-75
2023/03/19 10:32:45;;;;;;;18.80;10.50;;;;;;;10.07;39.52;94352.34;5064916;28;20051;-75
2023/03/19 10:35:26;;;;;;;25.10;10.32;;;;;;;10.23;38.50;94347.50;5064915;28;20020;-75
2023/03/19 10:37:54;;;;;;;20.58;10.95;;;;;;;10.31;37.76;94346.06;5064910;28;20032;-75
2023/03/19 10:40:31;;;;;;;23.55;10.50;;;;;;;10.31;37.39;94343.41;5064841;28;20204;-76
2023/03/19 10:43:13;;;;;;;18.95;9.95;;;;;;;10.38;37.57;94344.56;5065114;28;20071;-75
2023/03/19 10:45:39;;;;;;;18.45;10.80;;;;;;;10.51;38.06;94326.19;5064866;28;20043;-76
2023/03/19 10:48:05;;;;;;;21.23;9.57;;;;;;;10.61;36.80;94323.28;5064556;28;20347;-75
2023/03/19 10:50:37;;;;;;;21.08;9.50;;;;;;;10.70;36.76;94328.69;5063524;28;20025;-76
2023/03/19 10:53:27;;;;;;;24.13;10.00;;;;;;;10.80;36.53;94321.22;5064608;28;20052;-76
2023/03/19 10:55:54;;;;;;;19.92;10.50;;;;;;;10.84;36.33;94310.75;5064467;28;20031;-76
2023/03/19 10:58:24;;;;;;;20.85;10.40;;;;;;;10.89;36.04;94307.16;5064297;28;20029;-76
2023/03/19 11:01:03;;;;;;;25.30;10.57;;;;;;;10.93;36.05;94308.94;5064268;28;20021;-76
2023/03/19 11:03:37;;;;;;;22.27;10.18;;;;;;;10.98;35.57;94302.69;5064415;28;20032;-76
2023/03/19 11:06:04;;;;;;;18.02;10.00;;;;;;;11.06;36.34;94295.84;5064143;28;20021;-76
2023/03/19 11:08:35;;;;;;;18.83;10.60;;;;;;;11.20;35.52;94291.22;5063253;28;20031;-76
2023/03/19 11:11:01;;;;;;;16.85;8.80;;;;;;;11.33;35.43;94293.00;5064190;28;20105;-76
2023/03/19 11:13:27;;;;;;;19.10;8.88;;;;;;;11.52;35.34;94291.97;5064220;28;20228;-76
2023/03/19 11:15:56;;;;;;;18.13;8.73;;;;;;;11.63;34.79;94286.06;5063958;28;20044;-76
2023/03/19 11:18:26;;;;;;;23.02;9.10;;;;;;;11.77;34.09;94285.16;5063883;28;20033;-76
2023/03/19 11:21:18;;;;;;;14.43;7.03;;;;;;;11.89;33.80;94279.28;5063760;28;20037;-75
2023/03/19 11:23:44;;;;;;;16.13;8.73;;;;;;;11.92;33.18;94262.59;5063766;28;20054;-76
2023/03/19 11:26:18;;;;;;;21.05;9.77;;;;;;;12.07;34.39;94270.19;5063859;28;20055;-75
2023/03/19 11:28:43;;;;;;;16.58;7.70;;;;;;;12.27;33.48;94273.34;5063675;28;20013;-75
2023/03/19 11:31:24;;;;;;;15.50;7.72;;;;;;;12.41;33.28;94261.41;5062514;28;20020;-77
2023/03/19 11:34:14;;;;;;;16.08;7.38;;;;;;;12.48;32.65;94260.94;5060358;28;20028;-78